createdAt,value
2023-04-18T00:01:09.987Z,6.38
2023-04-18T00:03:40.979Z,8.20
2023-04-18T00:06:08.580Z,8.15
2023-04-18T00:08:36.486Z,8.85
2023-04-18T00:11:03.896Z,8.40
2023-04-18T00:13:31.276Z,7.70
2023-04-18T00:15:58.619Z,8.25
2023-04-18T00:18:27.150Z,7.88
2023-04-18T00:20:54.884Z,7.50
2023-04-18T00:23:22.415Z,7.05
2023-04-18T00:25:49.786Z,7.15
2023-04-18T00:28:17.175Z,6.53
2023-04-18T00:30:45.374Z,6.70
2023-04-18T00:33:12.826Z,7.57
2023-04-18T00:35:40.304Z,8.18
2023-04-18T00:38:08.440Z,7.60
2023-04-18T00:40:36.261Z,7.78
2023-04-18T00:43:03.657Z,6.70
2023-04-18T00:45:31.186Z,7.28
2023-04-18T00:47:58.654Z,7.15
2023-04-18T00:50:26.679Z,6.60
2023-04-18T00:52:54.617Z,6.88
2023-04-18T00:55:22.477Z,6.43
2023-04-18T00:57:50.591Z,6.60
2023-04-18T01:00:18.111Z,7.43
2023-04-18T01:02:47.067Z,7.03
2023-04-18T01:05:14.657Z,6.95
2023-04-18T01:07:42.914Z,6.45
2023-04-18T01:10:10.811Z,6.25
2023-04-18T01:12:38.419Z,6.95
2023-04-18T01:15:06.675Z,6.45
2023-04-18T01:17:35.674Z,6.13
2023-04-18T01:20:06.227Z,5.68
2023-04-18T01:22:33.887Z,5.28
2023-04-18T01:25:06.181Z,6.38
2023-04-18T01:27:33.639Z,5.75
2023-04-18T01:30:01.182Z,5.82
2023-04-18T01:32:30.638Z,6.03
2023-04-18T01:34:57.983Z,6.00
2023-04-18T01:37:25.487Z,5.50
2023-04-18T01:39:53.814Z,5.90
2023-04-18T01:42:21.153Z,5.40
2023-04-18T01:44:48.485Z,5.65
2023-04-18T01:47:15.807Z,5.57
2023-04-18T01:49:47.978Z,4.78
2023-04-18T01:52:16.132Z,5.70
2023-04-18T01:54:43.485Z,5.40
2023-04-18T01:57:10.830Z,5.40
2023-04-18T01:59:38.734Z,4.72
2023-04-18T02:02:06.200Z,5.50
2023-04-18T02:04:33.613Z,4.93
2023-04-18T02:07:01.084Z,5.70
2023-04-18T02:09:28.538Z,4.68
2023-04-18T02:11:59.257Z,4.78
2023-04-18T02:14:28.243Z,5.55
2023-04-18T02:16:55.607Z,4.85
2023-04-18T02:19:24.293Z,4.80
2023-04-18T02:21:51.892Z,4.80
2023-04-18T02:24:19.390Z,3.22
2023-04-18T02:26:46.943Z,5.15
2023-04-18T02:29:14.369Z,4.55
2023-04-18T02:31:42.163Z,3.78
2023-04-18T02:34:09.608Z,4.88
2023-04-18T02:36:37.003Z,4.68
2023-04-18T02:39:04.352Z,4.55
2023-04-18T02:41:31.750Z,4.03
2023-04-18T02:43:59.590Z,4.68
2023-04-18T02:46:27.132Z,4.78
2023-04-18T02:48:54.633Z,4.68
2023-04-18T02:51:25.023Z,5.10
2023-04-18T02:53:55.069Z,3.88
2023-04-18T02:56:23.115Z,4.78
2023-04-18T02:59:09.212Z,4.72
2023-04-18T03:01:52.388Z,4.50
2023-04-18T03:04:22.193Z,3.88
2023-04-18T03:06:59.521Z,4.70
2023-04-18T03:09:28.761Z,4.63
2023-04-18T03:12:02.431Z,5.05
2023-04-18T03:14:31.852Z,5.18
2023-04-18T03:17:00.433Z,4.95
2023-04-18T03:19:33.612Z,5.43
2023-04-18T03:22:11.561Z,5.10
2023-04-18T03:24:46.355Z,5.53
2023-04-18T03:27:14.731Z,4.93
2023-04-18T03:29:44.196Z,3.58
2023-04-18T03:32:12.595Z,5.45
2023-04-18T03:34:40.017Z,5.38
2023-04-18T03:37:08.852Z,5.20
2023-04-18T03:39:41.841Z,5.05
2023-04-18T03:42:09.435Z,5.22
2023-04-18T03:44:36.787Z,5.22
2023-04-18T03:47:04.893Z,5.13
2023-04-18T03:49:34.754Z,5.72
2023-04-18T03:52:03.621Z,5.22
2023-04-18T03:54:31.063Z,4.93
2023-04-18T03:56:59.422Z,4.97
2023-04-18T03:59:27.656Z,6.15
2023-04-18T04:01:56.309Z,5.30
2023-04-18T04:04:23.819Z,5.50
2023-04-18T04:06:51.629Z,5.47
2023-04-18T04:09:19.070Z,5.53
2023-04-18T04:11:46.496Z,4.40
2023-04-18T04:14:15.658Z,5.18
2023-04-18T04:16:46.181Z,5.80
2023-04-18T04:19:16.389Z,5.28
2023-04-18T04:21:51.890Z,5.13
2023-04-18T04:24:20.491Z,5.25
2023-04-18T04:26:50.731Z,5.20
2023-04-18T04:29:21.621Z,5.70
2023-04-18T04:31:49.644Z,5.70
2023-04-18T04:34:26.805Z,5.65
2023-04-18T04:36:55.038Z,4.85
2023-04-18T04:39:24.023Z,5.28
2023-04-18T04:42:16.683Z,5.18
2023-04-18T04:45:00.264Z,5.72
2023-04-18T04:47:27.938Z,5.43
2023-04-18T04:49:55.368Z,5.75
2023-04-18T04:52:22.730Z,4.65
2023-04-18T04:54:51.783Z,4.97
2023-04-18T04:57:21.074Z,5.63
2023-04-18T04:59:48.684Z,5.50
2023-04-18T05:02:16.709Z,5.85
2023-04-18T05:04:44.151Z,6.43
2023-04-18T05:07:11.503Z,6.30
2023-04-18T05:09:38.896Z,4.57
2023-04-18T05:12:06.479Z,5.38
2023-04-18T05:14:33.869Z,5.68
2023-04-18T05:17:01.334Z,6.13
2023-04-18T05:19:28.712Z,5.95
2023-04-18T05:21:56.388Z,5.22
2023-04-18T05:24:23.767Z,6.32
2023-04-18T05:26:51.412Z,3.80
2023-04-18T05:29:18.804Z,5.38
2023-04-18T05:31:46.161Z,5.00
2023-04-18T05:34:14.207Z,5.85
2023-04-18T05:36:41.773Z,6.43
2023-04-18T05:39:09.150Z,6.25
2023-04-18T05:41:36.510Z,5.20
2023-04-18T05:44:16.815Z,5.10
2023-04-18T05:46:44.464Z,5.57
2023-04-18T05:49:12.494Z,6.00
2023-04-18T05:51:40.084Z,6.60
2023-04-18T05:54:07.434Z,5.80
2023-04-18T05:56:34.821Z,5.43
2023-04-18T05:59:02.339Z,4.72
2023-04-18T06:01:29.876Z,6.32
2023-04-18T06:03:57.509Z,5.82
2023-04-18T06:06:25.822Z,5.43
2023-04-18T06:08:53.886Z,6.25
2023-04-18T06:11:21.616Z,6.07
2023-04-18T06:13:49.092Z,5.70
2023-04-18T06:16:16.448Z,5.78
2023-04-18T06:18:43.896Z,6.70
2023-04-18T06:21:11.329Z,4.25
2023-04-18T06:23:38.685Z,6.47
2023-04-18T06:26:07.443Z,5.57
2023-04-18T06:28:35.066Z,5.22
2023-04-18T06:31:02.666Z,5.95
2023-04-18T06:33:30.942Z,5.75
2023-04-18T06:35:58.484Z,5.95
2023-04-18T06:38:26.174Z,6.07
2023-04-18T06:40:53.750Z,5.95
2023-04-18T06:43:22.124Z,5.82
2023-04-18T06:45:51.656Z,6.30
2023-04-18T06:48:19.071Z,6.28
2023-04-18T06:50:46.704Z,5.82
2023-04-18T06:53:14.992Z,6.38
2023-04-18T06:55:42.483Z,6.13
2023-04-18T06:58:10.184Z,5.32
2023-04-18T07:00:37.594Z,6.13
2023-04-18T07:03:11.457Z,5.15
2023-04-18T07:05:39.831Z,5.05
2023-04-18T07:08:08.099Z,5.03
2023-04-18T07:10:35.436Z,5.43
2023-04-18T07:13:03.014Z,6.00
2023-04-18T07:15:30.707Z,5.60
2023-04-18T07:17:58.186Z,4.15
2023-04-18T07:20:25.579Z,5.95
2023-04-18T07:22:53.011Z,5.38
2023-04-18T07:25:20.497Z,4.63
2023-04-18T07:27:48.068Z,4.80
2023-04-18T07:30:15.761Z,5.45
2023-04-18T07:32:43.215Z,6.28
2023-04-18T07:35:10.951Z,5.53
2023-04-18T07:37:38.610Z,5.45
2023-04-18T07:40:07.603Z,5.60
2023-04-18T07:42:38.035Z,5.32
2023-04-18T07:45:06.264Z,5.50
2023-04-18T07:47:33.945Z,5.85
2023-04-18T07:50:01.730Z,4.55
2023-04-18T07:52:29.208Z,4.80
2023-04-18T07:54:56.601Z,4.88
2023-04-18T07:57:23.966Z,5.88
2023-04-18T07:59:53.783Z,4.25
2023-04-18T08:02:21.623Z,5.60
2023-04-18T08:04:50.062Z,5.65
2023-04-18T08:07:17.634Z,4.80
2023-04-18T08:09:45.024Z,5.88
2023-04-18T08:12:12.428Z,4.07
2023-04-18T08:14:39.760Z,4.75
2023-04-18T08:17:07.191Z,4.47
2023-04-18T08:19:34.528Z,4.90
2023-04-18T08:22:09.392Z,4.38
2023-04-18T08:24:42.878Z,3.95
2023-04-18T08:27:15.962Z,4.25
2023-04-18T08:29:43.346Z,3.45
2023-04-18T08:32:11.052Z,4.90
2023-04-18T08:34:38.458Z,5.13
2023-04-18T08:37:07.329Z,4.50
2023-04-18T08:39:35.424Z,4.00
2023-04-18T08:42:06.351Z,4.32
2023-04-18T08:44:34.266Z,4.53
2023-04-18T08:47:01.745Z,4.55
2023-04-18T08:49:31.365Z,5.10
2023-04-18T08:52:01.174Z,4.43
2023-04-18T08:54:30.492Z,3.92
2023-04-18T08:57:08.825Z,4.18
2023-04-18T08:59:36.400Z,3.42
2023-04-18T09:02:06.354Z,4.00
2023-04-18T09:04:44.869Z,4.38
2023-04-18T09:07:14.533Z,3.70
2023-04-18T09:09:50.834Z,4.13
2023-04-18T09:12:29.559Z,4.22
2023-04-18T09:15:09.482Z,4.07
2023-04-18T09:17:43.572Z,3.83
2023-04-18T09:20:12.286Z,4.60
2023-04-18T09:22:48.652Z,3.55
2023-04-18T09:25:29.596Z,4.30
2023-04-18T09:28:01.507Z,4.28
2023-04-18T09:30:34.927Z,3.97
2023-04-18T09:33:06.430Z,3.78
2023-04-18T09:35:34.657Z,3.90
2023-04-18T09:38:02.213Z,4.15
2023-04-18T09:40:30.952Z,3.88
2023-04-18T09:42:58.438Z,3.58
2023-04-18T09:45:26.595Z,3.70
2023-04-18T09:47:55.886Z,3.95
2023-04-18T09:50:23.413Z,3.30
2023-04-18T09:52:50.847Z,3.17
2023-04-18T09:55:19.407Z,4.57
2023-04-18T09:57:48.726Z,3.42
2023-04-18T10:00:24.861Z,3.75
2023-04-18T10:02:59.452Z,3.83
2023-04-18T10:08:03.967Z,3.42
2023-04-18T10:10:32.308Z,4.35
2023-04-18T10:13:05.401Z,3.28
2023-04-18T10:15:33.377Z,3.30
2023-04-18T10:18:05.894Z,3.65
2023-04-18T10:20:35.260Z,3.60
2023-04-18T10:23:31.010Z,3.63
2023-04-18T10:25:59.435Z,4.28
2023-04-18T10:28:28.157Z,3.90
2023-04-18T10:31:03.646Z,3.90
2023-04-18T10:33:36.051Z,4.25
2023-04-18T10:36:09.587Z,3.83
2023-04-18T10:38:45.227Z,3.50
2023-04-18T10:41:26.731Z,2.63
2023-04-18T10:44:09.549Z,2.90
2023-04-18T10:46:37.652Z,3.05
2023-04-18T10:49:23.287Z,3.08
2023-04-18T10:51:55.703Z,3.72
2023-04-18T10:54:23.088Z,4.00
2023-04-18T10:56:58.495Z,3.45
2023-04-18T10:59:27.156Z,3.60
2023-04-18T11:02:05.088Z,4.00
2023-04-18T11:04:32.728Z,3.83
2023-04-18T11:07:00.225Z,4.00
2023-04-18T11:09:27.664Z,3.63
2023-04-18T11:12:09.365Z,2.70
2023-04-18T11:14:44.683Z,2.55
2023-04-18T11:17:22.160Z,2.47
2023-04-18T11:19:50.317Z,2.60
2023-04-18T11:22:18.917Z,2.90
2023-04-18T11:24:46.519Z,2.83
2023-04-18T11:27:14.430Z,3.03
2023-04-18T11:29:41.910Z,2.78
2023-04-18T11:32:09.731Z,2.90
2023-04-18T11:34:37.062Z,3.25
2023-04-18T11:37:08.492Z,3.40
2023-04-18T11:39:42.375Z,3.47
2023-04-18T11:42:10.139Z,3.35
2023-04-18T11:44:39.859Z,4.10
2023-04-18T11:47:23.968Z,3.60
2023-04-18T11:50:02.756Z,4.33
2023-04-18T11:52:31.661Z,3.78
2023-04-18T11:55:14.896Z,4.40
2023-04-18T11:57:42.397Z,4.05
2023-04-18T12:00:12.497Z,4.40
2023-04-18T12:02:45.939Z,4.78
2023-04-18T12:05:27.405Z,4.18
2023-04-18T12:07:55.823Z,4.82
2023-04-18T12:10:26.551Z,4.97
2023-04-18T12:12:56.193Z,4.88
2023-04-18T12:15:28.126Z,4.80
2023-04-18T12:18:04.068Z,4.47
2023-04-18T12:20:37.664Z,4.97
2023-04-18T12:23:05.452Z,5.65
2023-04-18T12:25:33.465Z,4.70
2023-04-18T12:28:04.065Z,4.00
2023-04-18T12:30:36.003Z,4.60
2023-04-18T12:33:05.084Z,5.38
2023-04-18T12:35:32.921Z,5.10
2023-04-18T12:38:02.057Z,5.10
2023-04-18T12:40:30.069Z,5.20
2023-04-18T12:42:57.511Z,5.45
2023-04-18T12:45:25.062Z,5.15
2023-04-18T12:47:53.688Z,5.05
2023-04-18T12:50:26.695Z,5.20
2023-04-18T12:52:55.822Z,4.82
2023-04-18T12:55:23.363Z,5.13
2023-04-18T12:57:54.167Z,5.80
2023-04-18T13:00:23.647Z,5.75
2023-04-18T13:02:52.482Z,6.28
2023-04-18T13:05:22.201Z,6.05
2023-04-18T13:07:58.516Z,5.90
2023-04-18T13:10:29.281Z,5.78
2023-04-18T13:12:56.664Z,5.90
2023-04-18T13:15:24.167Z,6.68
2023-04-18T13:17:51.720Z,6.97
2023-04-18T13:20:19.567Z,6.40
2023-04-18T13:22:46.990Z,6.32
2023-04-18T13:25:14.392Z,6.30
2023-04-18T13:27:42.249Z,6.75
2023-04-18T13:30:11.037Z,7.00
2023-04-18T13:32:40.298Z,6.28
2023-04-18T13:35:09.039Z,6.63
2023-04-18T13:37:37.956Z,6.40
2023-04-18T13:40:06.606Z,6.72
2023-04-18T13:42:35.620Z,6.68
2023-04-18T13:45:03.256Z,6.82
2023-04-18T13:47:30.754Z,6.57
2023-04-18T13:49:58.416Z,6.50
2023-04-18T13:52:26.243Z,7.10
2023-04-18T13:54:53.648Z,6.07
2023-04-18T13:57:21.906Z,6.80
2023-04-18T13:59:49.451Z,7.00
2023-04-18T14:02:17.017Z,6.28
2023-04-18T14:04:44.617Z,5.40
2023-04-18T14:07:12.190Z,6.25
2023-04-18T14:09:39.534Z,6.82
2023-04-18T14:12:07.189Z,7.97
2023-04-18T14:14:34.674Z,6.13
2023-04-18T14:17:02.068Z,7.22
2023-04-18T14:19:29.409Z,6.97
2023-04-18T14:21:56.821Z,6.80
2023-04-18T14:24:24.199Z,7.00
2023-04-18T14:26:51.635Z,7.05
2023-04-18T14:29:19.033Z,6.70
2023-04-18T14:31:46.538Z,7.13
2023-04-18T14:34:13.983Z,7.00
2023-04-18T14:36:41.480Z,6.68
2023-04-18T14:39:08.979Z,6.15
2023-04-18T14:41:36.412Z,6.50
2023-04-18T14:44:04.230Z,6.20
2023-04-18T14:46:31.697Z,6.40
2023-04-18T14:48:59.756Z,6.65
2023-04-18T14:51:29.257Z,6.78
2023-04-18T14:53:56.645Z,6.63
2023-04-18T14:56:24.418Z,4.90
2023-04-18T14:58:52.266Z,7.05
2023-04-18T15:01:19.743Z,6.95
2023-04-18T15:03:47.399Z,6.63
2023-04-18T15:06:14.942Z,6.95
2023-04-18T15:08:44.241Z,6.30
2023-04-18T15:11:12.150Z,5.78
2023-04-18T15:13:40.146Z,7.15
2023-04-18T15:16:07.874Z,7.60
2023-04-18T15:18:35.357Z,7.20
2023-04-18T15:21:02.949Z,7.30
2023-04-18T15:23:30.337Z,6.65
2023-04-18T15:25:59.052Z,6.40
2023-04-18T15:28:26.434Z,6.90
2023-04-18T15:30:53.872Z,6.90
2023-04-18T15:33:21.803Z,7.20
2023-04-18T15:35:49.194Z,6.15
2023-04-18T15:38:16.527Z,6.38
2023-04-18T15:40:44.654Z,6.35
2023-04-18T15:43:13.785Z,6.60
2023-04-18T15:45:41.358Z,6.45
2023-04-18T15:48:08.810Z,6.40
2023-04-18T15:50:39.164Z,6.30
2023-04-18T15:53:06.586Z,6.18
2023-04-18T15:55:34.424Z,6.40
2023-04-18T15:58:01.872Z,6.40
2023-04-18T16:00:29.222Z,6.00
2023-04-18T16:03:04.948Z,6.10
2023-04-18T16:05:32.972Z,6.20
2023-04-18T16:08:01.297Z,6.57
2023-04-18T16:10:28.744Z,5.85
2023-04-18T16:12:59.504Z,4.80
2023-04-18T16:15:27.066Z,5.07
2023-04-18T16:17:54.943Z,5.57
2023-04-18T16:20:23.075Z,5.93
2023-04-18T16:22:50.768Z,5.45
2023-04-18T16:25:18.950Z,5.93
2023-04-18T16:27:46.285Z,6.22
2023-04-18T16:30:13.989Z,5.85
2023-04-18T16:32:41.319Z,5.82
2023-04-18T16:35:10.875Z,5.30
2023-04-18T16:37:41.502Z,5.65
2023-04-18T16:40:10.196Z,5.70
2023-04-18T16:42:38.047Z,5.65
2023-04-18T16:45:07.483Z,6.10
2023-04-18T16:47:34.899Z,5.60
2023-04-18T16:50:02.269Z,5.47
2023-04-18T16:52:30.945Z,6.18
2023-04-18T16:54:58.410Z,5.90
2023-04-18T16:57:25.885Z,6.05
2023-04-18T16:59:53.280Z,5.95
2023-04-18T17:02:20.825Z,5.72
2023-04-18T17:04:49.020Z,5.90
2023-04-18T17:07:16.359Z,5.70
2023-04-18T17:09:43.708Z,5.53
2023-04-18T17:12:11.086Z,5.82
2023-04-18T17:14:38.360Z,5.90
2023-04-18T17:17:06.079Z,5.90
2023-04-18T17:19:33.367Z,5.70
2023-04-18T17:22:00.698Z,5.80
2023-04-18T17:24:28.001Z,5.70
2023-04-18T17:26:57.596Z,4.90
2023-04-18T17:29:26.123Z,6.03
2023-04-18T17:31:55.419Z,5.28
2023-04-18T17:34:22.868Z,5.57
2023-04-18T17:36:50.638Z,5.20
2023-04-18T17:39:18.060Z,5.13
2023-04-18T17:41:46.254Z,6.45
2023-04-18T17:44:13.696Z,5.70
2023-04-18T17:46:41.071Z,5.70
2023-04-18T17:49:08.550Z,6.03
2023-04-18T17:51:36.014Z,5.85
2023-04-18T17:54:05.144Z,5.90
2023-04-18T17:56:32.773Z,5.05
2023-04-18T17:59:00.269Z,5.85
2023-04-18T18:01:30.276Z,5.43
2023-04-18T18:03:57.989Z,5.13
2023-04-18T18:06:27.526Z,5.47
2023-04-18T18:08:55.949Z,5.32
2023-04-18T18:11:23.892Z,5.30
2023-04-18T18:13:54.630Z,5.38
2023-04-18T18:16:24.004Z,5.35
2023-04-18T18:18:51.680Z,5.43
2023-04-18T18:21:19.391Z,5.20
2023-04-18T18:23:46.887Z,5.47
2023-04-18T18:26:14.288Z,5.50
2023-04-18T18:28:41.685Z,5.22
2023-04-18T18:31:09.116Z,5.95
2023-04-18T18:33:36.514Z,5.50
2023-04-18T18:36:04.314Z,5.65
2023-04-18T18:38:31.781Z,5.57
2023-04-18T18:41:00.995Z,5.65
2023-04-18T18:43:34.013Z,6.05
2023-04-18T18:46:01.660Z,5.15
2023-04-18T18:48:29.246Z,5.57
2023-04-18T18:50:57.283Z,5.53
2023-04-18T18:53:24.724Z,4.90
2023-04-18T18:55:52.252Z,5.38
2023-04-18T18:58:19.677Z,5.38
2023-04-18T19:00:47.130Z,5.63
2023-04-18T19:03:18.405Z,5.50
2023-04-18T19:05:46.572Z,5.38
2023-04-18T19:08:16.018Z,5.70
2023-04-18T19:10:43.416Z,5.63
2023-04-18T19:13:10.939Z,5.38
2023-04-18T19:15:38.393Z,5.63
2023-04-18T19:18:07.672Z,5.75
2023-04-18T19:20:35.468Z,5.88
2023-04-18T19:23:04.484Z,5.88
2023-04-18T19:25:31.927Z,5.68
2023-04-18T19:28:15.472Z,6.13
2023-04-18T19:30:44.048Z,6.30
2023-04-18T19:33:11.519Z,5.55
2023-04-18T19:35:38.985Z,5.50
2023-04-18T19:38:06.432Z,6.03
2023-04-18T19:40:33.784Z,5.72
2023-04-18T19:43:01.235Z,6.07
2023-04-18T19:45:30.551Z,5.20
2023-04-18T19:47:57.958Z,5.88
2023-04-18T19:50:25.323Z,5.20
2023-04-18T19:52:52.832Z,5.18
2023-04-18T19:55:20.359Z,4.80
2023-04-18T19:57:48.126Z,4.97
2023-04-18T20:00:16.024Z,4.93
2023-04-18T20:02:43.537Z,4.75
2023-04-18T20:05:12.566Z,5.05
2023-04-18T20:07:41.590Z,4.72
2023-04-18T20:10:09.541Z,4.40
2023-04-18T20:12:37.078Z,4.65
2023-04-18T20:15:05.752Z,4.18
2023-04-18T20:17:34.648Z,4.60
2023-04-18T20:20:02.948Z,4.60
2023-04-18T20:22:32.519Z,4.47
2023-04-18T20:25:01.625Z,4.55
2023-04-18T20:27:29.052Z,4.00
2023-04-18T20:29:58.032Z,4.20
2023-04-18T20:32:26.691Z,4.63
2023-04-18T20:34:55.295Z,4.50
2023-04-18T20:37:22.878Z,4.30
2023-04-18T20:39:51.434Z,4.35
2023-04-18T20:42:19.946Z,4.47
2023-04-18T20:44:47.577Z,4.47
2023-04-18T20:47:15.894Z,4.88
2023-04-18T20:49:43.591Z,4.15
2023-04-18T20:52:11.118Z,4.55
2023-04-18T20:54:38.477Z,4.60
2023-04-18T20:57:05.883Z,4.72
2023-04-18T20:59:33.260Z,4.72
2023-04-18T21:02:01.011Z,3.78
2023-04-18T21:04:28.523Z,4.50
2023-04-18T21:06:55.926Z,4.45
2023-04-18T21:09:23.341Z,3.90
2023-04-18T21:11:50.944Z,5.10
2023-04-18T21:14:18.488Z,4.25
2023-04-18T21:16:46.149Z,4.70
2023-04-18T21:19:13.477Z,4.40
2023-04-18T21:21:40.933Z,4.22
2023-04-18T21:24:08.610Z,4.45
2023-04-18T21:26:36.030Z,4.50
2023-04-18T21:29:04.962Z,4.32
2023-04-18T21:31:33.925Z,4.60
2023-04-18T21:34:03.024Z,4.47
2023-04-18T21:36:31.313Z,3.83
2023-04-18T21:39:00.980Z,4.43
2023-04-18T21:41:28.522Z,4.85
2023-04-18T21:43:55.901Z,3.90
2023-04-18T21:46:23.290Z,4.40
2023-04-18T21:48:51.079Z,4.05
2023-04-18T21:51:18.630Z,3.60
2023-04-18T21:53:46.345Z,4.18
2023-04-18T21:56:14.236Z,4.35
2023-04-18T21:58:41.533Z,4.35
2023-04-18T22:01:09.105Z,4.00
2023-04-18T22:03:36.973Z,4.00
2023-04-18T22:06:04.648Z,3.22
2023-04-18T22:08:32.519Z,4.00
2023-04-18T22:11:00.354Z,4.05
2023-04-18T22:13:33.138Z,4.20
2023-04-18T22:16:03.468Z,4.32
2023-04-18T22:18:37.610Z,3.97
2023-04-18T22:21:06.093Z,4.43
2023-04-18T22:23:33.467Z,4.13
2023-04-18T22:26:00.886Z,3.53
2023-04-18T22:28:28.476Z,4.60
2023-04-18T22:30:56.042Z,3.95
2023-04-18T22:33:23.631Z,4.50
2023-04-18T22:35:51.380Z,4.43
2023-04-18T22:38:18.761Z,3.88
2023-04-18T22:40:46.119Z,4.53
2023-04-18T22:43:13.476Z,4.25
2023-04-18T22:45:40.939Z,4.35
2023-04-18T22:48:11.463Z,3.97
2023-04-18T22:50:42.555Z,4.13
2023-04-18T22:53:14.378Z,4.63
2023-04-18T22:55:43.497Z,4.38
2023-04-18T22:58:11.580Z,4.00
2023-04-18T23:00:38.967Z,4.50
2023-04-18T23:03:06.560Z,4.45
2023-04-18T23:05:34.340Z,4.40
2023-04-18T23:08:01.983Z,4.63
2023-04-18T23:10:29.416Z,4.22
2023-04-18T23:12:56.947Z,4.53
2023-04-18T23:15:26.267Z,4.00
2023-04-18T23:17:54.156Z,4.43
2023-04-18T23:20:22.128Z,3.95
2023-04-18T23:22:51.720Z,4.55
2023-04-18T23:25:19.980Z,4.80
2023-04-18T23:27:47.835Z,4.35
2023-04-18T23:30:15.297Z,4.35
2023-04-18T23:32:42.856Z,4.10
2023-04-18T23:35:11.505Z,4.03
2023-04-18T23:37:39.025Z,4.65
2023-04-18T23:40:07.995Z,4.10
2023-04-18T23:42:35.909Z,3.95
2023-04-18T23:45:04.357Z,4.05
2023-04-18T23:47:31.926Z,4.13
2023-04-18T23:49:59.286Z,4.90
2023-04-18T23:52:26.657Z,5.07
2023-04-18T23:54:53.962Z,4.60
2023-04-18T23:57:21.394Z,3.78
2023-04-18T23:59:48.859Z,4.20
